sensor_id;sensor_type;location;lat;lon;timestamp;temperature;humidity
75517;DHT22;64097;52.548;13.406;2023-02-18T06:05:42;11.70;55.80
75517;DHT22;64097;52.548;13.406;2023-02-18T06:08:07;11.70;56.50
75517;DHT22;64097;52.548;13.406;2023-02-18T06:10:33;11.80;55.70
75517;DHT22;64097;52.548;13.406;2023-02-18T06:12:59;11.80;55.60
75517;DHT22;64097;52.548;13.406;2023-02-18T06:15:26;11.80;55.60
75517;DHT22;64097;52.548;13.406;2023-02-18T06:17:53;11.80;55.50
75517;DHT22;64097;52.548;13.406;2023-02-18T06:20:19;11.80;55.30
75517;DHT22;64097;52.548;13.406;2023-02-18T06:22:44;11.80;55.30
75517;DHT22;64097;52.548;13.406;2023-02-18T06:25:10;11.90;55.40
75517;DHT22;64097;52.548;13.406;2023-02-18T06:27:36;11.90;55.30
75517;DHT22;64097;52.548;13.406;2023-02-18T06:30:01;11.90;55.40
75517;DHT22;64097;52.548;13.406;2023-02-18T06:32:27;12.00;55.30
75517;DHT22;64097;52.548;13.406;2023-02-18T06:34:53;11.90;55.20
75517;DHT22;64097;52.548;13.406;2023-02-18T06:37:18;12.00;55.20
75517;DHT22;64097;52.548;13.406;2023-02-18T06:39:44;12.00;55.10
75517;DHT22;64097;52.548;13.406;2023-02-18T06:42:10;12.00;55.00
75517;DHT22;64097;52.548;13.406;2023-02-18T06:44:35;12.00;54.90
75517;DHT22;64097;52.548;13.406;2023-02-18T06:47:01;12.00;55.10
75517;DHT22;64097;52.548;13.406;2023-02-18T06:49:27;12.00;55.10
75517;DHT22;64097;52.548;13.406;2023-02-18T06:51:52;12.10;55.00
75517;DHT22;64097;52.548;13.406;2023-02-18T06:54:18;12.10;55.10
75517;DHT22;64097;52.548;13.406;2023-02-18T06:56:44;12.10;55.00
75517;DHT22;64097;52.548;13.406;2023-02-18T06:59:09;12.10;55.00
75517;DHT22;64097;52.548;13.406;2023-02-18T07:01:36;12.10;55.00
75517;DHT22;64097;52.548;13.406;2023-02-18T07:04:01;12.20;55.00
75517;DHT22;64097;52.548;13.406;2023-02-18T07:06:27;12.20;55.00
75517;DHT22;64097;52.548;13.406;2023-02-18T07:08:53;12.20;54.90
75517;DHT22;64097;52.548;13.406;2023-02-18T07:11:18;12.20;54.80
75517;DHT22;64097;52.548;13.406;2023-02-18T07:13:44;12.20;54.60
75517;DHT22;64097;52.548;13.406;2023-02-18T07:16:10;12.20;54.50
75517;DHT22;64097;52.548;13.406;2023-02-18T07:18:35;12.20;54.70
75517;DHT22;64097;52.548;13.406;2023-02-18T07:21:01;12.30;54.60
75517;DHT22;64097;52.548;13.406;2023-02-18T07:23:27;12.30;54.50
75517;DHT22;64097;52.548;13.406;2023-02-18T07:26:09;12.30;54.50
75517;DHT22;64097;52.548;13.406;2023-02-18T07:28:35;12.30;54.60
75517;DHT22;64097;52.548;13.406;2023-02-18T07:31:00;12.30;54.40
75517;DHT22;64097;52.548;13.406;2023-02-18T07:33:27;12.30;54.30
75517;DHT22;64097;52.548;13.406;2023-02-18T07:35:54;12.30;54.30
75517;DHT22;64097;52.548;13.406;2023-02-18T07:38:21;12.40;54.40
75517;DHT22;64097;52.548;13.406;2023-02-18T07:40:47;12.40;54.60
75517;DHT22;64097;52.548;13.406;2023-02-18T07:43:13;12.40;54.50
75517;DHT22;64097;52.548;13.406;2023-02-18T07:45:38;12.50;54.60
75517;DHT22;64097;52.548;13.406;2023-02-18T07:48:04;12.50;54.70
75517;DHT22;64097;52.548;13.406;2023-02-18T07:50:30;12.50;54.80
75517;DHT22;64097;52.548;13.406;2023-02-18T07:53:00;12.60;55.00
75517;DHT22;64097;52.548;13.406;2023-02-18T07:55:26;12.60;55.00
75517;DHT22;64097;52.548;13.406;2023-02-18T08:00:45;12.70;55.00
75517;DHT22;64097;52.548;13.406;2023-02-18T08:03:13;12.70;55.00
75517;DHT22;64097;52.548;13.406;2023-02-18T08:05:39;12.70;55.20
75517;DHT22;64097;52.548;13.406;2023-02-18T08:08:04;12.70;55.40
75517;DHT22;64097;52.548;13.406;2023-02-18T08:10:30;12.80;55.60
75517;DHT22;64097;52.548;13.406;2023-02-18T08:12:56;12.80;55.90
75517;DHT22;64097;52.548;13.406;2023-02-18T08:15:22;12.80;56.10
75517;DHT22;64097;52.548;13.406;2023-02-18T08:17:47;12.80;56.20
75517;DHT22;64097;52.548;13.406;2023-02-18T08:20:13;12.80;56.30
75517;DHT22;64097;52.548;13.406;2023-02-18T08:22:39;12.80;56.40
75517;DHT22;64097;52.548;13.406;2023-02-18T08:25:05;12.90;56.50
75517;DHT22;64097;52.548;13.406;2023-02-18T08:27:31;12.90;56.50
75517;DHT22;64097;52.548;13.406;2023-02-18T08:29:57;12.90;56.40
75517;DHT22;64097;52.548;13.406;2023-02-18T08:32:26;12.90;56.60
75517;DHT22;64097;52.548;13.406;2023-02-18T08:34:52;12.90;56.90
75517;DHT22;64097;52.548;13.406;2023-02-18T08:37:18;12.90;57.20
75517;DHT22;64097;52.548;13.406;2023-02-18T08:39:43;12.90;57.50
75517;DHT22;64097;52.548;13.406;2023-02-18T08:42:09;12.90;57.70
75517;DHT22;64097;52.548;13.406;2023-02-18T08:44:35;12.90;58.00
75517;DHT22;64097;52.548;13.406;2023-02-18T08:47:00;12.90;58.20
75517;DHT22;64097;52.548;13.406;2023-02-18T08:49:26;12.90;58.40
75517;DHT22;64097;52.548;13.406;2023-02-18T08:51:52;12.90;58.40
75517;DHT22;64097;52.548;13.406;2023-02-18T08:54:18;12.90;58.40
75517;DHT22;64097;52.548;13.406;2023-02-18T08:56:43;12.90;58.60
75517;DHT22;64097;52.548;13.406;2023-02-18T08:59:09;12.90;58.70
75517;DHT22;64097;52.548;13.406;2023-02-18T09:01:35;12.90;58.80
75517;DHT22;64097;52.548;13.406;2023-02-18T09:04:01;12.90;59.00
75517;DHT22;64097;52.548;13.406;2023-02-18T09:06:27;13.00;59.30
75517;DHT22;64097;52.548;13.406;2023-02-18T09:08:53;12.90;59.30
75517;DHT22;64097;52.548;13.406;2023-02-18T09:11:19;13.00;59.50
75517;DHT22;64097;52.548;13.406;2023-02-18T09:13:45;13.00;59.60
75517;DHT22;64097;52.548;13.406;2023-02-18T09:16:16;13.00;59.60
75517;DHT22;64097;52.548;13.406;2023-02-18T09:18:43;13.00;59.90
75517;DHT22;64097;52.548;13.406;2023-02-18T09:21:11;13.00;60.20
75517;DHT22;64097;52.548;13.406;2023-02-18T09:23:38;13.00;60.30
75517;DHT22;64097;52.548;13.406;2023-02-18T09:26:06;13.00;60.50
75517;DHT22;64097;52.548;13.406;2023-02-18T09:28:33;13.00;60.90
75517;DHT22;64097;52.548;13.406;2023-02-18T09:31:07;13.00;60.90
75517;DHT22;64097;52.548;13.406;2023-02-18T09:33:40;13.00;61.20
75517;DHT22;64097;52.548;13.406;2023-02-18T09:36:07;13.00;61.20
75517;DHT22;64097;52.548;13.406;2023-02-18T09:38:33;13.00;62.50
75517;DHT22;64097;52.548;13.406;2023-02-18T09:41:01;13.00;61.90
75517;DHT22;64097;52.548;13.406;2023-02-18T09:43:41;13.00;61.90
75517;DHT22;64097;52.548;13.406;2023-02-18T09:46:38;13.00;62.30
75517;DHT22;64097;52.548;13.406;2023-02-18T09:49:07;13.00;62.30
75517;DHT22;64097;52.548;13.406;2023-02-18T09:51:38;13.00;62.60
75517;DHT22;64097;52.548;13.406;2023-02-18T09:54:04;13.00;62.60
75517;DHT22;64097;52.548;13.406;2023-02-18T09:56:31;13.00;62.70
75517;DHT22;64097;52.548;13.406;2023-02-18T09:59:02;13.00;62.80
75517;DHT22;64097;52.548;13.406;2023-02-18T10:01:32;13.00;62.90
75517;DHT22;64097;52.548;13.406;2023-02-18T10:04:04;13.00;63.10
75517;DHT22;64097;52.548;13.406;2023-02-18T10:06:33;13.00;63.10
75517;DHT22;64097;52.548;13.406;2023-02-18T10:09:09;13.00;63.30
75517;DHT22;64097;52.548;13.406;2023-02-18T10:11:41;13.00;63.40
75517;DHT22;64097;52.548;13.406;2023-02-18T10:14:11;12.90;63.30
75517;DHT22;64097;52.548;13.406;2023-02-18T10:16:37;12.90;63.20
75517;DHT22;64097;52.548;13.406;2023-02-18T10:19:27;12.90;63.40
75517;DHT22;64097;52.548;13.406;2023-02-18T10:21:54;12.90;63.70
75517;DHT22;64097;52.548;13.406;2023-02-18T10:24:32;12.90;63.80
75517;DHT22;64097;52.548;13.406;2023-02-18T10:26:59;12.90;64.30
75517;DHT22;64097;52.548;13.406;2023-02-18T10:29:26;12.90;64.30
75517;DHT22;64097;52.548;13.406;2023-02-18T10:32:06;12.90;64.50
75517;DHT22;64097;52.548;13.406;2023-02-18T10:34:41;12.90;64.70
75517;DHT22;64097;52.548;13.406;2023-02-18T10:45:27;12.90;65.10
75517;DHT22;64097;52.548;13.406;2023-02-18T10:48:15;12.90;65.00
75517;DHT22;64097;52.548;13.406;2023-02-18T10:50:46;12.90;65.10
75517;DHT22;64097;52.548;13.406;2023-02-18T10:53:14;12.90;65.20
75517;DHT22;64097;52.548;13.406;2023-02-18T10:55:43;12.90;65.30
75517;DHT22;64097;52.548;13.406;2023-02-18T10:58:30;12.90;65.30
75517;DHT22;64097;52.548;13.406;2023-02-18T11:00:57;12.90;65.30
75517;DHT22;64097;52.548;13.406;2023-02-18T11:06:03;12.90;65.90
75517;DHT22;64097;52.548;13.406;2023-02-18T11:08:41;12.90;66.10
75517;DHT22;64097;52.548;13.406;2023-02-18T11:11:22;12.90;66.30
75517;DHT22;64097;52.548;13.406;2023-02-18T11:13:57;12.90;66.30
75517;DHT22;64097;52.548;13.406;2023-02-18T11:16:37;12.90;66.30
75517;DHT22;64097;52.548;13.406;2023-02-18T11:19:03;13.00;66.40
75517;DHT22;64097;52.548;13.406;2023-02-18T11:21:34;13.00;66.50
75517;DHT22;64097;52.548;13.406;2023-02-18T11:24:12;13.00;66.40
75517;DHT22;64097;52.548;13.406;2023-02-18T11:26:40;13.00;66.50
75517;DHT22;64097;52.548;13.406;2023-02-18T11:29:27;13.00;66.60
75517;DHT22;64097;52.548;13.406;2023-02-18T11:31:56;13.00;66.70
75517;DHT22;64097;52.548;13.406;2023-02-18T11:34:25;13.00;66.80
75517;DHT22;64097;52.548;13.406;2023-02-18T11:36:52;13.00;66.90
75517;DHT22;64097;52.548;13.406;2023-02-18T11:39:28;13.00;66.70
75517;DHT22;64097;52.548;13.406;2023-02-18T11:42:00;13.10;67.00
75517;DHT22;64097;52.548;13.406;2023-02-18T11:44:34;13.10;67.20
75517;DHT22;64097;52.548;13.406;2023-02-18T11:49:40;13.00;67.50
75517;DHT22;64097;52.548;13.406;2023-02-18T11:52:24;13.10;67.60
75517;DHT22;64097;52.548;13.406;2023-02-18T11:57:29;13.00;67.70
75517;DHT22;64097;52.548;13.406;2023-02-18T11:59:56;13.00;68.00
75517;DHT22;64097;52.548;13.406;2023-02-18T12:02:35;13.10;68.30
75517;DHT22;64097;52.548;13.406;2023-02-18T12:05:21;13.00;68.60
75517;DHT22;64097;52.548;13.406;2023-02-18T12:08:23;13.00;68.70
75517;DHT22;64097;52.548;13.406;2023-02-18T12:11:00;13.00;68.80
75517;DHT22;64097;52.548;13.406;2023-02-18T12:13:46;13.10;69.10
75517;DHT22;64097;52.548;13.406;2023-02-18T12:16:39;13.10;69.10
75517;DHT22;64097;52.548;13.406;2023-02-18T12:28:08;13.20;69.90
75517;DHT22;64097;52.548;13.406;2023-02-18T12:33:16;13.30;70.10
75517;DHT22;64097;52.548;13.406;2023-02-18T12:38:27;13.30;70.50
75517;DHT22;64097;52.548;13.406;2023-02-18T12:49:36;13.40;71.40
75517;DHT22;64097;52.548;13.406;2023-02-18T13:13:52;13.90;72.40
75517;DHT22;64097;52.548;13.406;2023-02-18T13:16:22;14.00;72.60
75517;DHT22;64097;52.548;13.406;2023-02-18T13:18:58;14.00;72.60
75517;DHT22;64097;52.548;13.406;2023-02-18T13:21:26;14.10;72.40
75517;DHT22;64097;52.548;13.406;2023-02-18T13:24:00;14.10;72.40
75517;DHT22;64097;52.548;13.406;2023-02-18T13:26:29;14.20;72.70
75517;DHT22;64097;52.548;13.406;2023-02-18T13:31:43;14.30;73.10
75517;DHT22;64097;52.548;13.406;2023-02-18T13:39:50;14.30;73.70
75517;DHT22;64097;52.548;13.406;2023-02-18T13:47:42;14.40;74.00
75517;DHT22;64097;52.548;13.406;2023-02-18T13:55:53;14.40;74.20
75517;DHT22;64097;52.548;13.406;2023-02-18T13:58:24;14.40;74.10
